Time;durP1;ratioP1;P1;durP2;ratioP2;P2;SDS_P1;SDS_P2;PMS_P1;PMS_P2;Temp;Humidity;BMP_temperature;BMP_pressure;BME280_temperature;BME280_humidity;BME280_pressure;Samples;Min_cycle;Max_cycle;Signal;HPM_P1;HPM_P2
2023/07/04 00:00:25;;;;;;;2.63;1.10;;;18.20;99.90;;;;;;4966186;28;20102;-80
2023/07/04 00:02:51;;;;;;;2.55;1.15;;;18.20;99.90;;;;;;4951836;28;20388;-80
2023/07/04 00:05:17;;;;;;;3.63;1.42;;;18.20;99.90;;;;;;4951370;28;20023;-80
2023/07/04 00:07:43;;;;;;;4.72;1.63;;;18.20;99.90;;;;;;4951393;28;20043;-80
2023/07/04 00:10:09;;;;;;;1.52;1.42;;;18.20;99.90;;;;;;4951575;28;20027;-80
2023/07/04 00:12:35;;;;;;;1.20;1.02;;;18.20;99.90;;;;;;4950920;28;20055;-80
2023/07/04 00:15:00;;;;;;;2.88;1.55;;;18.20;99.90;;;;;;4950419;28;20054;-80
2023/07/04 00:17:26;;;;;;;2.22;1.55;;;18.30;99.90;;;;;;4951003;28;20042;-80
2023/07/04 00:19:52;;;;;;;1.70;1.20;;;18.20;99.90;;;;;;4949796;28;20246;-80
2023/07/04 00:22:18;;;;;;;5.60;1.67;;;18.20;99.90;;;;;;4950049;28;20596;-80
2023/07/04 00:24:44;;;;;;;3.25;1.08;;;18.20;99.90;;;;;;4964152;28;20122;-80
2023/07/04 00:27:12;;;;;;;2.92;1.50;;;18.20;99.90;;;;;;4964679;28;20121;-80
2023/07/04 00:29:38;;;;;;;3.03;1.88;;;18.20;99.90;;;;;;4949546;28;20019;-80
2023/07/04 00:32:05;;;;;;;2.25;1.35;;;18.10;99.90;;;;;;4964713;28;20023;-80
2023/07/04 00:34:31;;;;;;;4.15;1.25;;;18.00;99.90;;;;;;4950613;28;20104;-80
2023/07/04 00:36:59;;;;;;;3.63;1.65;;;17.90;99.90;;;;;;4946693;28;20077;-80
2023/07/04 00:39:26;;;;;;;1.73;1.55;;;17.80;99.90;;;;;;4931984;29;20054;-80
2023/07/04 00:41:52;;;;;;;2.30;1.98;;;17.80;99.90;;;;;;4946696;28;20036;-80
2023/07/04 00:44:24;;;;;;;2.92;1.17;;;17.90;99.90;;;;;;4946188;28;20035;-80
2023/07/04 00:47:10;;;;;;;3.20;1.20;;;17.90;99.90;;;;;;4946780;28;20148;-79
2023/07/04 00:49:44;;;;;;;1.48;1.17;;;17.90;99.90;;;;;;4932155;29;20058;-80
2023/07/04 00:52:11;;;;;;;2.17;1.38;;;17.80;99.90;;;;;;4932170;29;20082;-80
2023/07/04 00:54:40;;;;;;;1.85;1.08;;;17.70;99.90;;;;;;4932195;29;20020;-80
2023/07/04 00:57:07;;;;;;;1.75;1.40;;;17.70;99.90;;;;;;4931850;29;20039;-80
2023/07/04 00:59:43;;;;;;;3.30;1.13;;;17.70;99.90;;;;;;4946264;28;20122;-80
2023/07/04 01:02:11;;;;;;;1.83;1.30;;;17.70;99.90;;;;;;4946655;28;20019;-80
2023/07/04 01:04:38;;;;;;;4.82;1.55;;;17.80;99.90;;;;;;4946669;28;20401;-80
2023/07/04 01:07:29;;;;;;;1.67;1.20;;;17.80;99.90;;;;;;4946759;28;20079;-80
2023/07/04 01:10:16;;;;;;;2.95;1.08;;;17.70;99.90;;;;;;4931890;29;20039;-80
2023/07/04 01:12:42;;;;;;;3.08;1.73;;;17.70;99.90;;;;;;4946304;28;20543;-80
2023/07/04 01:15:09;;;;;;;5.00;1.70;;;17.70;99.90;;;;;;4931359;29;20067;-79
2023/07/04 01:17:35;;;;;;;1.20;1.08;;;17.70;99.90;;;;;;4932053;29;20066;-80
2023/07/04 01:20:04;;;;;;;3.00;1.20;;;17.70;99.90;;;;;;4950364;28;20047;-79
2023/07/04 01:22:45;;;;;;;0.90;0.90;;;17.70;99.90;;;;;;4950500;28;20409;-80
2023/07/04 01:25:31;;;;;;;3.08;1.63;;;17.60;99.90;;;;;;4934377;29;20060;-80
2023/07/04 01:28:02;;;;;;;1.48;1.10;;;17.70;99.90;;;;;;4935725;29;20525;-80
2023/07/04 01:30:31;;;;;;;1.33;1.10;;;17.60;99.90;;;;;;4949734;28;20031;-79
2023/07/04 01:32:59;;;;;;;1.27;1.03;;;17.60;99.90;;;;;;4935521;29;20024;-79
2023/07/04 01:35:26;;;;;;;2.13;1.10;;;17.70;99.90;;;;;;4942054;28;20298;-79
2023/07/04 01:37:53;;;;;;;1.40;0.95;;;17.90;99.90;;;;;;4954832;28;20027;-80
2023/07/04 01:40:20;;;;;;;4.03;1.48;;;18.20;99.90;;;;;;4969476;28;20034;-79
2023/07/04 01:42:48;;;;;;;1.40;1.30;;;18.30;99.90;;;;;;4969561;28;20023;-79
2023/07/04 01:45:14;;;;;;;0.90;0.90;;;18.50;99.90;;;;;;4954776;28;20377;-80
2023/07/04 01:47:40;;;;;;;1.85;1.27;;;18.60;99.90;;;;;;4969169;28;20555;-80
2023/07/04 01:50:08;;;;;;;2.67;0.90;;;18.60;99.90;;;;;;4969316;28;20476;-80
2023/07/04 01:52:33;;;;;;;2.03;1.52;;;18.60;99.90;;;;;;4952778;28;20042;-81
2023/07/04 01:54:59;;;;;;;5.22;1.30;;;18.60;99.90;;;;;;4969050;28;20050;-80
2023/07/04 01:57:25;;;;;;;1.48;1.25;;;18.60;99.90;;;;;;4969324;28;20129;-80
2023/07/04 01:59:51;;;;;;;1.45;1.35;;;18.60;99.90;;;;;;4968689;28;20082;-80
2023/07/04 02:02:16;;;;;;;4.40;1.73;;;18.50;99.90;;;;;;4968912;28;20031;-80
2023/07/04 02:04:42;;;;;;;1.35;1.25;;;18.50;99.90;;;;;;4953914;28;20035;-81
2023/07/04 02:07:08;;;;;;;1.15;0.95;;;18.50;99.90;;;;;;4968725;28;20027;-80
2023/07/04 02:09:34;;;;;;;2.72;1.42;;;18.50;99.90;;;;;;4953869;28;20476;-80
2023/07/04 02:12:00;;;;;;;2.28;1.45;;;18.50;99.90;;;;;;4953814;28;20063;-81
2023/07/04 02:14:26;;;;;;;1.63;1.10;;;18.50;99.90;;;;;;4968245;28;20382;-80
2023/07/04 02:16:52;;;;;;;1.65;1.15;;;18.50;99.90;;;;;;4968278;28;20397;-80
2023/07/04 02:19:18;;;;;;;1.90;1.23;;;18.40;99.90;;;;;;4968256;28;20507;-80
2023/07/04 02:21:44;;;;;;;2.22;1.30;;;18.30;99.90;;;;;;4968367;28;20085;-79
2023/07/04 02:24:10;;;;;;;1.85;1.10;;;18.20;99.90;;;;;;4953992;28;20051;-80
2023/07/04 02:26:36;;;;;;;0.98;0.90;;;18.20;99.90;;;;;;4953652;28;20407;-80
2023/07/04 02:29:03;;;;;;;2.13;1.73;;;18.10;99.90;;;;;;4968036;28;20461;-80
2023/07/04 02:31:28;;;;;;;1.20;1.08;;;17.90;99.90;;;;;;4953782;28;20035;-80
2023/07/04 02:33:54;;;;;;;1.58;1.20;;;17.90;99.90;;;;;;4953633;28;20024;-79
2023/07/04 02:36:20;;;;;;;2.50;1.23;;;17.90;99.90;;;;;;4968233;28;20051;-80
2023/07/04 02:38:46;;;;;;;2.25;1.25;;;17.90;99.90;;;;;;4968237;28;20024;-80
2023/07/04 02:41:12;;;;;;;1.35;0.95;;;17.80;99.90;;;;;;4968636;28;20035;-80
2023/07/04 02:43:37;;;;;;;4.88;1.30;;;17.70;99.90;;;;;;4952855;28;20031;-80
2023/07/04 02:46:05;;;;;;;3.50;1.20;;;17.60;99.90;;;;;;4968329;28;20023;-80
2023/07/04 02:48:31;;;;;;;1.85;1.40;;;17.60;99.90;;;;;;4953398;28;20050;-80
2023/07/04 02:50:58;;;;;;;2.88;1.27;;;17.60;99.90;;;;;;4967565;28;20039;-81
2023/07/04 02:53:23;;;;;;;3.58;1.33;;;17.50;99.90;;;;;;4968086;28;20258;-80
2023/07/04 02:55:50;;;;;;;2.60;1.50;;;17.50;99.90;;;;;;4967710;28;20271;-79
2023/07/04 02:58:16;;;;;;;2.05;1.10;;;17.60;99.90;;;;;;4953146;28;20071;-79
2023/07/04 03:00:43;;;;;;;3.67;1.65;;;17.30;99.90;;;;;;4953290;28;20035;-80
2023/07/04 03:03:09;;;;;;;3.63;1.67;;;17.20;99.90;;;;;;4953346;28;20034;-79
2023/07/04 03:05:35;;;;;;;1.05;0.95;;;17.10;99.90;;;;;;4953076;28;20481;-80
2023/07/04 03:08:02;;;;;;;1.30;1.00;;;17.10;99.90;;;;;;4967444;28;20078;-81
2023/07/04 03:10:28;;;;;;;0.95;0.90;;;17.00;99.90;;;;;;4952856;28;20038;-80
2023/07/04 03:12:53;;;;;;;1.50;1.23;;;17.00;99.90;;;;;;4967527;28;20118;-79
2023/07/04 03:15:19;;;;;;;2.33;1.13;;;16.90;99.90;;;;;;4967019;28;20231;-81
2023/07/04 03:17:44;;;;;;;1.45;1.20;;;16.70;99.90;;;;;;4952778;28;20507;-78
2023/07/04 03:20:12;;;;;;;0.90;0.80;;;16.50;99.90;;;;;;4967575;28;20031;-80
2023/07/04 03:22:39;;;;;;;2.40;1.50;;;16.30;99.90;;;;;;4953109;28;20328;-79
2023/07/04 03:25:05;;;;;;;0.85;0.85;;;16.20;99.90;;;;;;4952731;28;20109;-80
2023/07/04 03:27:31;;;;;;;1.83;1.13;;;16.20;99.90;;;;;;4967141;28;20027;-79
2023/07/04 03:29:56;;;;;;;1.98;0.98;;;16.10;99.90;;;;;;4966620;28;20118;-79
2023/07/04 03:32:22;;;;;;;2.10;1.00;;;16.20;99.90;;;;;;4966991;28;20126;-80
2023/07/04 03:34:48;;;;;;;4.05;1.27;;;16.20;99.90;;;;;;4952114;28;20023;-80
2023/07/04 03:37:13;;;;;;;1.48;1.38;;;16.10;99.90;;;;;;4967415;28;20046;-80
2023/07/04 03:39:39;;;;;;;3.05;1.48;;;16.10;99.90;;;;;;4967133;28;20027;-79
2023/07/04 03:42:05;;;;;;;1.30;1.20;;;16.10;99.90;;;;;;4951764;28;20031;-80
2023/07/04 03:44:31;;;;;;;1.52;1.40;;;16.10;99.90;;;;;;4966542;28;20082;-80
2023/07/04 03:46:57;;;;;;;2.08;0.93;;;16.10;99.90;;;;;;4951746;28;20118;-80
2023/07/04 03:49:22;;;;;;;3.25;1.45;;;16.00;99.90;;;;;;4966430;28;20030;-80
2023/07/04 03:51:48;;;;;;;1.67;1.30;;;16.10;99.90;;;;;;4966832;28;20027;-80
2023/07/04 03:54:13;;;;;;;4.97;1.40;;;16.10;99.90;;;;;;4951916;28;20034;-80
2023/07/04 03:56:39;;;;;;;3.53;1.25;;;16.00;99.90;;;;;;4967050;28;20170;-81
2023/07/04 03:59:05;;;;;;;2.60;1.73;;;15.90;99.90;;;;;;4966481;28;20381;-80
2023/07/04 04:01:30;;;;;;;2.42;1.45;;;15.80;99.90;;;;;;4966719;28;20038;-80
2023/07/04 04:03:56;;;;;;;1.50;1.30;;;15.80;99.90;;;;;;4966520;28;20122;-79
2023/07/04 04:06:22;;;;;;;2.60;1.27;;;15.80;99.90;;;;;;4966360;28;20035;-80
2023/07/04 04:08:47;;;;;;;1.50;1.02;;;15.70;99.90;;;;;;4951566;28;20031;-80
2023/07/04 04:11:13;;;;;;;3.13;1.40;;;15.70;99.90;;;;;;4952275;28;20027;-80
2023/07/04 04:13:39;;;;;;;2.22;1.38;;;15.70;99.90;;;;;;4966279;28;20055;-81
2023/07/04 04:16:05;;;;;;;1.45;1.35;;;15.80;99.90;;;;;;4966615;28;20035;-81
2023/07/04 04:18:31;;;;;;;2.05;1.67;;;15.80;99.90;;;;;;4957036;28;20467;-79
2023/07/04 04:20:56;;;;;;;3.45;1.60;;;15.90;99.90;;;;;;4969515;28;20036;-80
2023/07/04 04:23:22;;;;;;;3.78;1.23;;;16.00;99.90;;;;;;4970534;28;20031;-80
2023/07/04 04:25:48;;;;;;;3.22;1.20;;;16.10;99.90;;;;;;4971224;28;20109;-80
2023/07/04 04:28:14;;;;;;;1.92;1.10;;;16.20;99.90;;;;;;4970555;28;20496;-80
2023/07/04 04:30:40;;;;;;;2.38;1.20;;;16.20;99.90;;;;;;4969492;28;20026;-80
2023/07/04 04:33:06;;;;;;;2.55;1.38;;;16.30;99.90;;;;;;4969570;28;20030;-80
2023/07/04 04:35:33;;;;;;;1.80;1.63;;;16.50;99.90;;;;;;4969172;28;20047;-80
2023/07/04 04:37:59;;;;;;;1.17;1.02;;;16.60;99.90;;;;;;4969301;28;20058;-80
2023/07/04 04:40:25;;;;;;;3.00;1.38;;;16.80;99.90;;;;;;4968942;28;20035;-80
2023/07/04 04:42:55;;;;;;;1.58;1.13;;;16.80;99.90;;;;;;4968982;28;20031;-80
2023/07/04 04:45:21;;;;;;;2.90;1.63;;;16.70;99.90;;;;;;4970791;28;20025;-80
2023/07/04 04:47:53;;;;;;;4.10;1.25;;;16.90;99.90;;;;;;4968915;28;20263;-81
2023/07/04 04:50:30;;;;;;;2.40;1.83;;;17.00;99.90;;;;;;4970775;28;20050;-80
2023/07/04 04:52:57;;;;;;;1.73;1.10;;;17.20;99.90;;;;;;4968386;28;20344;-80
2023/07/04 04:55:23;;;;;;;8.93;1.65;;;17.50;99.90;;;;;;4970036;28;20039;-80
2023/07/04 04:57:49;;;;;;;2.20;0.90;;;17.50;99.90;;;;;;4970338;28;20030;-80
2023/07/04 05:00:16;;;;;;;1.35;1.25;;;17.60;99.90;;;;;;4970236;28;20027;-81
2023/07/04 05:02:44;;;;;;;2.05;0.93;;;17.80;99.90;;;;;;4970188;28;20093;-80
2023/07/04 05:05:11;;;;;;;0.80;0.80;;;18.00;99.90;;;;;;4969228;28;20460;-79
2023/07/04 05:07:37;;;;;;;1.55;1.45;;;18.20;99.90;;;;;;4970309;28;20340;-80
2023/07/04 05:10:04;;;;;;;0.80;0.80;;;18.30;99.90;;;;;;4969102;28;20023;-80
2023/07/04 05:12:31;;;;;;;2.15;1.13;;;18.40;99.90;;;;;;4968818;28;20019;-80
2023/07/04 05:14:57;;;;;;;1.08;1.00;;;18.50;99.90;;;;;;4970123;28;20031;-81
2023/07/04 05:17:23;;;;;;;1.45;1.10;;;18.60;99.90;;;;;;4969971;28;20027;-80
2023/07/04 05:19:49;;;;;;;1.08;0.98;;;18.60;99.90;;;;;;4969944;28;20073;-80
2023/07/04 05:22:17;;;;;;;1.30;1.20;;;18.80;99.90;;;;;;4970157;28;20034;-80
2023/07/04 05:24:43;;;;;;;1.85;0.85;;;19.00;99.90;;;;;;4970221;28;20034;-80
2023/07/04 05:27:09;;;;;;;1.92;0.85;;;19.10;99.90;;;;;;4968676;28;20414;-78
2023/07/04 05:29:34;;;;;;;1.52;1.35;;;19.30;99.90;;;;;;4969786;28;20506;-80
2023/07/04 05:32:00;;;;;;;0.95;0.95;;;19.50;99.90;;;;;;4968761;28;20034;-79
2023/07/04 05:34:26;;;;;;;1.80;1.13;;;19.60;99.90;;;;;;4968663;28;20023;-80
2023/07/04 05:36:51;;;;;;;2.60;1.30;;;19.60;99.90;;;;;;4968806;28;20411;-80
2023/07/04 05:39:17;;;;;;;1.33;1.00;;;19.80;99.90;;;;;;4967562;28;20623;-80
2023/07/04 05:41:43;;;;;;;2.78;1.15;;;19.90;99.90;;;;;;4967906;28;20118;-80
2023/07/04 05:44:10;;;;;;;1.45;0.95;;;20.10;99.90;;;;;;4968656;28;20019;-80
2023/07/04 05:46:36;;;;;;;2.65;1.15;;;20.30;99.90;;;;;;4967794;28;20412;-80
2023/07/04 05:49:03;;;;;;;0.93;0.93;;;20.40;99.90;;;;;;4969029;28;20026;-79
2023/07/04 05:51:30;;;;;;;2.38;0.93;;;20.50;99.90;;;;;;4967433;28;20125;-80
2023/07/04 05:53:55;;;;;;;2.88;1.77;;;20.70;99.90;;;;;;4967437;28;20056;-80
2023/07/04 05:56:24;;;;;;;3.20;2.17;;;20.70;99.90;;;;;;4968730;28;20412;-78
2023/07/04 05:58:58;;;;;;;8.20;2.08;;;20.70;99.90;;;;;;4968323;28;20110;-80
2023/07/04 06:01:23;;;;;;;1.30;1.10;;;20.70;99.90;;;;;;4967587;28;20030;-80
2023/07/04 06:03:50;;;;;;;0.70;0.70;;;20.80;99.90;;;;;;4968988;28;20023;-80
2023/07/04 06:06:29;;;;;;;0.75;0.55;;;20.80;99.90;;;;;;4972614;28;20110;-79
2023/07/04 06:08:57;;;;;;;0.90;0.90;;;20.90;99.90;;;;;;4970859;28;20050;-78
2023/07/04 06:11:26;;;;;;;3.72;0.95;;;21.10;99.90;;;;;;4972039;28;20038;-79
2023/07/04 06:13:52;;;;;;;1.23;0.73;;;21.20;99.90;;;;;;4971628;28;20031;-79
2023/07/04 06:16:17;;;;;;;1.15;1.02;;;21.30;99.90;;;;;;4970511;28;20043;-77
2023/07/04 06:18:43;;;;;;;1.92;0.90;;;21.50;99.90;;;;;;4972205;28;20156;-78
2023/07/04 06:21:10;;;;;;;0.73;0.73;;;21.40;99.90;;;;;;4971804;28;20034;-79
2023/07/04 06:23:36;;;;;;;1.27;0.75;;;21.10;99.90;;;;;;4968110;28;20062;-79
2023/07/04 06:26:02;;;;;;;1.05;0.63;;;21.20;99.90;;;;;;4971953;28;20092;-77
2023/07/04 06:28:28;;;;;;;2.47;0.93;;;21.30;99.90;;;;;;4969104;28;20447;-77
2023/07/04 06:30:53;;;;;;;0.45;0.45;;;21.50;99.90;;;;;;4970752;28;20031;-76
2023/07/04 06:33:19;;;;;;;0.68;0.60;;;21.60;99.90;;;;;;4970822;28;20399;-79
2023/07/04 06:35:45;;;;;;;0.80;0.80;;;21.50;99.90;;;;;;4929834;28;1174317;-80
2023/07/04 06:38:10;;;;;;;0.60;0.45;;;21.60;99.90;;;;;;4971835;28;20035;-81
2023/07/04 06:40:36;;;;;;;0.70;0.70;;;21.70;99.90;;;;;;4970478;28;20039;-78
2023/07/04 06:43:04;;;;;;;0.50;0.50;;;21.50;99.90;;;;;;4988551;28;20490;-80
2023/07/04 06:45:31;;;;;;;0.95;0.50;;;21.40;99.90;;;;;;4989684;28;20022;-79
2023/07/04 06:47:58;;;;;;;1.10;0.80;;;21.60;99.90;;;;;;4989708;28;20113;-79
2023/07/04 06:50:24;;;;;;;5.25;0.98;;;21.60;99.90;;;;;;4989572;28;20486;-79
2023/07/04 06:52:49;;;;;;;2.15;0.70;;;21.60;99.90;;;;;;4991090;28;20555;-79
2023/07/04 06:55:15;;;;;;;1.13;0.80;;;21.60;99.90;;;;;;4991385;28;20026;-78
2023/07/04 06:57:41;;;;;;;21.77;1.02;;;21.80;99.90;;;;;;4990724;28;20102;-78
2023/07/04 07:00:07;;;;;;;1.30;0.70;;;22.10;99.90;;;;;;4990861;28;20406;-80
2023/07/04 07:02:33;;;;;;;0.80;0.80;;;22.20;99.90;;;;;;4990700;28;20034;-79
2023/07/04 07:04:58;;;;;;;1.73;1.00;;;22.20;99.90;;;;;;4990941;28;20022;-76
2023/07/04 07:07:25;;;;;;;0.55;0.55;;;22.60;99.90;;;;;;4989426;28;20337;-76
2023/07/04 07:09:53;;;;;;;0.75;0.75;;;22.60;99.90;;;;;;4990462;28;20022;-77
2023/07/04 07:12:19;;;;;;;2.70;0.63;;;22.90;99.90;;;;;;4990817;28;20031;-77
2023/07/04 07:14:47;;;;;;;3.92;1.48;;;22.90;99.90;;;;;;4989022;28;20510;-78
2023/07/04 07:17:13;;;;;;;1.80;0.60;;;23.10;99.90;;;;;;4988522;28;20057;-77
2023/07/04 07:19:39;;;;;;;1.67;0.70;;;23.40;99.90;;;;;;4971817;28;20078;-78
2023/07/04 07:22:05;;;;;;;0.75;0.68;;;23.50;99.90;;;;;;4971511;28;20023;-79
2023/07/04 07:24:31;;;;;;;0.63;0.55;;;23.60;99.90;;;;;;4969739;28;20030;-77
2023/07/04 07:26:57;;;;;;;0.70;0.70;;;23.60;99.90;;;;;;4971043;28;20027;-76
2023/07/04 07:29:23;;;;;;;1.15;0.77;;;23.70;99.90;;;;;;4969202;28;20050;-79
2023/07/04 07:31:50;;;;;;;0.60;0.60;;;23.60;99.50;;;;;;4979503;28;20483;-79
2023/07/04 07:34:18;;;;;;;0.80;0.73;;;23.40;99.90;;;;;;4989192;28;20111;-78
2023/07/04 07:36:46;;;;;;;0.93;0.93;;;23.30;99.90;;;;;;4984063;28;20101;-77
2023/07/04 07:39:16;;;;;;;2.13;1.50;;;23.40;99.90;;;;;;4988479;28;20038;-73
2023/07/04 07:41:44;;;;;;;0.80;0.80;;;23.40;99.80;;;;;;4951488;28;20122;-80
2023/07/04 07:44:10;;;;;;;1.38;0.65;;;23.40;99.30;;;;;;4952635;28;20031;-78
2023/07/04 07:46:36;;;;;;;0.65;0.65;;;23.40;99.90;;;;;;4957111;28;20412;-79
2023/07/04 07:49:02;;;;;;;0.88;0.75;;;23.50;99.90;;;;;;4975276;28;20101;-79
2023/07/04 07:51:28;;;;;;;0.68;0.68;;;23.50;99.30;;;;;;4973731;28;20034;-76
2023/07/04 07:53:56;;;;;;;1.40;1.00;;;23.30;99.60;;;;;;4979845;28;20042;-78
2023/07/04 07:56:24;;;;;;;0.88;0.88;;;23.10;99.90;;;;;;4980570;28;20026;-79
2023/07/04 07:58:51;;;;;;;1.30;1.20;;;22.90;99.60;;;;;;4978523;28;20077;-78
2023/07/04 08:01:25;;;;;;;2.60;1.08;;;22.60;99.90;;;;;;4980745;28;20223;-78
2023/07/04 08:03:50;;;;;;;1.10;0.93;;;22.30;99.90;;;;;;4981288;28;20026;-79
2023/07/04 08:06:28;;;;;;;0.63;0.63;;;22.00;99.90;;;;;;4981235;28;20216;-78
2023/07/04 08:08:55;;;;;;;0.60;0.60;;;21.80;99.90;;;;;;4977752;28;20014;-80
2023/07/04 08:11:22;;;;;;;0.85;0.77;;;21.50;99.90;;;;;;4968762;28;20054;-78
2023/07/04 08:13:48;;;;;;;2.88;0.60;;;21.20;99.90;;;;;;4972247;28;20018;-78
2023/07/04 08:16:25;;;;;;;0.50;0.50;;;20.90;99.90;;;;;;4978621;28;20035;-78
2023/07/04 08:18:51;;;;;;;1.27;0.88;;;20.60;99.90;;;;;;4990844;28;20045;-83
2023/07/04 08:21:17;;;;;;;0.80;0.80;;;20.60;99.90;;;;;;5000156;28;20030;-78
2023/07/04 08:23:46;;;;;;;4.20;0.95;;;20.40;99.90;;;;;;4998089;28;20042;-79
2023/07/04 08:26:17;;;;;;;2.00;1.00;;;20.10;99.90;;;;;;4995741;28;20029;-83
2023/07/04 08:28:43;;;;;;;1.42;1.15;;;20.40;99.90;;;;;;4991770;28;20162;-83
2023/07/04 08:31:09;;;;;;;1.67;1.00;;;20.70;99.90;;;;;;4992049;28;20161;-83
2023/07/04 08:33:36;;;;;;;0.95;0.70;;;20.80;99.90;;;;;;4992274;28;20037;-82
2023/07/04 08:36:08;;;;;;;1.33;1.23;;;21.00;99.90;;;;;;4998621;28;20046;-83
2023/07/04 08:38:34;;;;;;;1.95;1.00;;;21.10;99.90;;;;;;4989891;28;20073;-82
2023/07/04 08:41:00;;;;;;;2.97;1.60;;;21.00;99.90;;;;;;4990554;28;20029;-82
2023/07/04 08:43:55;;;;;;;1.15;0.70;;;20.90;99.90;;;;;;4992979;28;20022;-79
2023/07/04 08:46:21;;;;;;;0.75;0.73;;;20.80;99.90;;;;;;4963702;28;20069;-77
2023/07/04 08:48:48;;;;;;;1.60;0.50;;;20.60;99.90;;;;;;4998627;28;20026;-75
2023/07/04 08:51:22;;;;;;;1.10;0.60;;;20.40;99.90;;;;;;4998869;28;20090;-83
2023/07/04 08:53:53;;;;;;;0.90;0.60;;;20.40;99.90;;;;;;4999644;28;20027;-83
2023/07/04 08:56:28;;;;;;;0.82;0.43;;;20.30;99.90;;;;;;4999758;28;20104;-81
2023/07/04 08:59:08;;;;;;;0.50;0.50;;;20.40;99.90;;;;;;4998561;28;20030;-79
2023/07/04 09:02:01;;;;;;;0.70;0.70;;;20.60;99.90;;;;;;4998612;28;20035;-82
2023/07/04 09:04:51;;;;;;;0.40;0.40;;;21.00;99.90;;;;;;4997671;28;20060;-80
2023/07/04 09:07:36;;;;;;;0.57;0.38;;;21.50;99.90;;;;;;4998223;28;20049;-80
2023/07/04 09:10:17;;;;;;;0.30;0.30;;;22.20;99.90;;;;;;4998450;28;20088;-78
2023/07/04 09:12:43;;;;;;;0.65;0.60;;;22.50;99.90;;;;;;4998618;28;20026;-82
2023/07/04 09:15:22;;;;;;;0.32;0.32;;;23.10;99.90;;;;;;4998235;28;20038;-80
2023/07/04 09:17:53;;;;;;;;;;;23.60;99.90;;;;;;4997762;28;20041;-77
2023/07/04 09:20:19;;;;;;;1.00;0.70;;;24.00;99.90;;;;;;4980437;28;19961;-83
2023/07/04 09:22:45;;;;;;;0.60;0.60;;;24.10;99.90;;;;;;4979948;28;20027;-81
2023/07/04 09:25:11;;;;;;;0.65;0.30;;;23.70;99.90;;;;;;4981108;28;20311;-81
2023/07/04 09:27:37;;;;;;;0.40;0.30;;;23.40;99.90;;;;;;4971038;28;20114;-83
2023/07/04 09:30:04;;;;;;;0.40;0.40;;;23.40;99.90;;;;;;4970626;28;20022;-83
2023/07/04 09:32:29;;;;;;;0.30;0.30;;;23.40;99.90;;;;;;4961882;28;20045;-81
2023/07/04 09:35:01;;;;;;;0.20;0.20;;;23.40;99.90;;;;;;4967229;28;20391;-85
2023/07/04 09:37:26;;;;;;;2.20;0.28;;;23.70;99.90;;;;;;4970402;28;20027;-84
2023/07/04 09:39:57;;;;;;;0.70;0.20;;;24.00;99.90;;;;;;4964689;28;20058;-78
2023/07/04 09:42:44;;;;;;;0.30;0.30;;;24.30;99.90;;;;;;4972387;28;20117;-79
2023/07/04 09:45:13;;;;;;;0.30;0.30;;;24.60;99.90;;;;;;4968681;28;20035;-73
2023/07/04 09:47:44;;;;;;;;;;;25.00;99.90;;;;;;4965028;28;20018;-75
2023/07/04 09:50:24;;;;;;;0.30;0.30;;;25.30;99.90;;;;;;4963830;28;20246;-75
2023/07/04 09:53:01;;;;;;;0.40;0.40;;;25.80;99.50;;;;;;4979975;28;20027;-77
2023/07/04 09:55:27;;;;;;;0.32;0.32;;;26.30;98.10;;;;;;4971893;28;20038;-77
2023/07/04 09:57:52;;;;;;;1.33;0.30;;;26.30;96.80;;;;;;4969781;28;20070;-77
2023/07/04 10:00:25;;;;;;;0.22;0.22;;;26.20;94.40;;;;;;4977146;28;20023;-78
2023/07/04 10:02:55;;;;;;;0.93;0.60;;;25.80;94.60;;;;;;4973034;28;20050;-79
2023/07/04 10:05:41;;;;;;;0.55;0.55;;;24.80;95.30;;;;;;4970157;28;20181;-78
2023/07/04 10:08:10;;;;;;;6.60;4.45;;;23.70;96.30;;;;;;4972825;28;20373;-82
2023/07/04 10:10:48;;;;;;;0.70;0.50;;;23.50;95.90;;;;;;4973726;28;20062;-79
2023/07/04 10:13:15;;;;;;;0.25;0.25;;;24.20;96.60;;;;;;4971481;28;20027;-79
2023/07/04 10:15:43;;;;;;;0.30;0.30;;;24.30;95.50;;;;;;4969947;28;20070;-78
2023/07/04 10:18:24;;;;;;;0.57;0.50;;;24.70;96.40;;;;;;4977600;28;20014;-81
2023/07/04 10:20:54;;;;;;;0.40;0.40;;;25.20;94.80;;;;;;4971119;28;20015;-78
2023/07/04 10:23:21;;;;;;;1.08;0.40;;;25.70;93.00;;;;;;4971999;28;20047;-78
2023/07/04 10:25:49;;;;;;;0.30;0.30;;;25.50;92.70;;;;;;4973727;28;20042;-79
2023/07/04 10:28:17;;;;;;;0.43;0.40;;;26.10;92.80;;;;;;4971787;28;20030;-76
2023/07/04 10:30:48;;;;;;;0.45;0.40;;;26.60;91.40;;;;;;4969526;28;20018;-76
2023/07/04 10:33:29;;;;;;;0.25;0.25;;;26.70;91.00;;;;;;4982320;28;20019;-78
2023/07/04 10:35:55;;;;;;;0.63;0.38;;;26.80;90.40;;;;;;4975873;28;20049;-81
2023/07/04 10:38:38;;;;;;;0.98;0.80;;;26.90;90.80;;;;;;4965285;28;20035;-81
2023/07/04 10:41:24;;;;;;;0.60;0.57;;;27.60;87.80;;;;;;4968330;28;20041;-82
2023/07/04 10:43:58;;;;;;;0.50;0.40;;;26.60;85.40;;;;;;4972248;28;20043;-79
2023/07/04 10:46:28;;;;;;;0.50;0.50;;;26.30;87.50;;;;;;4963288;28;20182;-80
2023/07/04 10:49:04;;;;;;;0.52;0.45;;;25.80;87.30;;;;;;4969609;28;20061;-79
2023/07/04 10:51:34;;;;;;;1.33;0.50;;;26.20;88.60;;;;;;4972676;28;20026;-81
2023/07/04 10:53:59;;;;;;;0.57;0.57;;;26.60;88.00;;;;;;4974726;28;20041;-81
2023/07/04 10:56:33;;;;;;;0.47;0.47;;;25.90;89.50;;;;;;4972313;28;20117;-80
2023/07/04 10:59:11;;;;;;;2.10;0.40;;;26.10;88.80;;;;;;4966260;28;20239;-78
2023/07/04 11:01:51;;;;;;;0.50;0.50;;;25.70;89.20;;;;;;4970652;28;20173;-78
2023/07/04 11:04:37;;;;;;;2.15;0.47;;;25.40;89.30;;;;;;4986079;28;20023;-82
2023/07/04 11:07:06;;;;;;;0.50;0.50;;;25.30;89.70;;;;;;4980826;28;20022;-78
2023/07/04 11:09:40;;;;;;;1.10;0.60;;;25.30;89.70;;;;;;4972625;28;20031;-79
2023/07/04 11:12:11;;;;;;;0.50;0.47;;;25.20;89.40;;;;;;4964454;28;20081;-83
2023/07/04 11:14:40;;;;;;;0.40;0.40;;;24.80;91.80;;;;;;4975862;28;20019;-80
2023/07/04 11:17:10;;;;;;;2.28;0.60;;;25.40;90.30;;;;;;4970541;28;20035;-79
2023/07/04 11:19:53;;;;;;;1.15;0.60;;;25.90;88.70;;;;;;4973258;28;20049;-76
2023/07/04 11:22:18;;;;;;;0.60;0.43;;;26.80;90.00;;;;;;4969610;28;20067;-77
2023/07/04 11:24:51;;;;;;;0.32;0.30;;;27.00;87.30;;;;;;4971923;28;20018;-76
2023/07/04 11:27:19;;;;;;;0.40;0.40;;;27.30;85.60;;;;;;4970347;28;20026;-77
2023/07/04 11:29:48;;;;;;;0.75;0.75;;;27.20;84.10;;;;;;4963740;28;20020;-77
2023/07/04 11:32:25;;;;;;;3.97;1.38;;;27.00;83.70;;;;;;4965942;28;20332;-76
2023/07/04 11:35:00;;;;;;;0.30;0.30;;;27.30;89.10;;;;;;4961718;28;20050;-78
2023/07/04 11:37:52;;;;;;;0.30;0.30;;;27.40;84.80;;;;;;4970070;28;20037;-77
2023/07/04 11:40:28;;;;;;;0.98;0.43;;;27.00;83.00;;;;;;4967503;28;20015;-76
2023/07/04 11:43:00;;;;;;;0.55;0.45;;;26.90;85.30;;;;;;4969016;28;20027;-81
2023/07/04 11:45:29;;;;;;;0.85;0.40;;;27.20;83.70;;;;;;4970103;28;20018;-78
2023/07/04 11:48:01;;;;;;;0.38;0.38;;;27.40;83.20;;;;;;4971628;28;20025;-77
2023/07/04 11:50:33;;;;;;;0.40;0.40;;;27.70;85.00;;;;;;4974387;28;20497;-76
2023/07/04 11:53:02;;;;;;;0.55;0.55;;;27.90;86.00;;;;;;4966494;28;20061;-79
2023/07/04 11:55:35;;;;;;;0.30;0.30;;;28.20;78.50;;;;;;4970773;28;20504;-76
2023/07/04 11:58:06;;;;;;;0.70;0.47;;;28.30;80.70;;;;;;4966230;28;20026;-77
2023/07/04 12:00:38;;;;;;;1.70;0.57;;;27.90;77.50;;;;;;4965584;28;20017;-79
2023/07/04 12:03:22;;;;;;;0.60;0.40;;;27.50;79.50;;;;;;4956000;28;20033;-79
2023/07/04 12:05:57;;;;;;;0.77;0.40;;;27.60;79.70;;;;;;4969456;28;20150;-76
2023/07/04 12:08:32;;;;;;;1.35;0.70;;;28.50;83.90;;;;;;4965450;28;20026;-77
2023/07/04 12:11:14;;;;;;;0.50;0.30;;;29.40;75.10;;;;;;4968476;28;20031;-79
2023/07/04 12:13:41;;;;;;;0.25;0.25;;;29.80;74.90;;;;;;4966264;28;20214;-77
2023/07/04 12:16:08;;;;;;;0.38;0.20;;;29.10;72.10;;;;;;4961814;28;20685;-78
2023/07/04 12:18:38;;;;;;;0.40;0.40;;;28.60;74.30;;;;;;4980438;28;20030;-78
2023/07/04 12:21:03;;;;;;;0.65;0.30;;;29.00;75.70;;;;;;4970972;28;20026;-79
2023/07/04 12:23:29;;;;;;;0.20;0.20;;;29.40;74.30;;;;;;4967359;28;20069;-77
2023/07/04 12:25:59;;;;;;;0.77;0.28;;;29.20;73.70;;;;;;4968542;28;20018;-78
2023/07/04 12:28:27;;;;;;;0.30;0.30;;;29.70;70.50;;;;;;4969354;28;20042;-78
2023/07/04 12:30:58;;;;;;;0.80;0.20;;;30.30;69.50;;;;;;4966338;28;20035;-78
2023/07/04 12:33:30;;;;;;;0.20;0.20;;;31.10;67.50;;;;;;4963418;28;20150;-78
2023/07/04 12:36:06;;;;;;;0.13;0.13;;;32.00;65.30;;;;;;4967252;28;20106;-78
2023/07/04 12:38:33;;;;;;;0.30;0.30;;;32.60;64.50;;;;;;4966949;28;20019;-79
2023/07/04 12:41:00;;;;;;;0.40;0.20;;;33.90;62.80;;;;;;4977945;28;20103;-80
2023/07/04 12:43:30;;;;;;;0.30;0.30;;;34.20;63.00;;;;;;4972442;28;20170;-78
2023/07/04 12:46:18;;;;;;;0.85;0.40;;;34.00;61.10;;;;;;4971947;28;20110;-77
2023/07/04 12:48:46;;;;;;;0.20;0.20;;;33.70;60.00;;;;;;4971933;28;20015;-82
2023/07/04 12:51:16;;;;;;;0.30;0.30;;;30.70;64.60;;;;;;4967591;28;20019;-78
2023/07/04 12:53:43;;;;;;;0.40;0.40;;;29.10;68.60;;;;;;4969504;28;20023;-83
2023/07/04 12:56:12;;;;;;;0.30;0.30;;;28.80;66.60;;;;;;4967859;28;20031;-82